sensor_id;sensor_type;location;lat;lon;timestamp;pressure;altitude;pressure_sealevel;temperature;humidity
78625;BME280;67944;0.000;0.000;2023-06-14T00:02:11;100211.84;;;28.22;24.46
78625;BME280;67944;0.000;0.000;2023-06-14T00:04:37;100201.38;;;28.20;24.43
78625;BME280;67944;0.000;0.000;2023-06-14T00:07:05;100206.72;;;28.20;24.40
78625;BME280;67944;0.000;0.000;2023-06-14T00:09:33;100206.13;;;28.18;24.31
78625;BME280;67944;0.000;0.000;2023-06-14T00:11:58;100202.84;;;28.16;24.81
78625;BME280;67944;0.000;0.000;2023-06-14T00:14:24;100202.03;;;28.16;24.47
78625;BME280;67944;0.000;0.000;2023-06-14T00:16:49;100202.31;;;28.14;24.64
78625;BME280;67944;0.000;0.000;2023-06-14T00:19:17;100203.34;;;28.13;24.79
78625;BME280;67944;0.000;0.000;2023-06-14T00:21:43;100202.53;;;28.13;24.73
78625;BME280;67944;0.000;0.000;2023-06-14T00:24:08;100199.53;;;28.09;24.57
78625;BME280;67944;0.000;0.000;2023-06-14T00:26:34;100204.06;;;28.09;24.44
78625;BME280;67944;0.000;0.000;2023-06-14T00:28:59;100204.28;;;28.07;24.43
78625;BME280;67944;0.000;0.000;2023-06-14T00:31:25;100197.31;;;28.06;24.70
78625;BME280;67944;0.000;0.000;2023-06-14T00:33:50;100204.53;;;28.06;24.80
78625;BME280;67944;0.000;0.000;2023-06-14T00:36:16;100194.06;;;28.04;24.94
78625;BME280;67944;0.000;0.000;2023-06-14T00:38:41;100196.97;;;28.03;24.71
78625;BME280;67944;0.000;0.000;2023-06-14T00:41:07;100199.88;;;28.01;24.83
78625;BME280;67944;0.000;0.000;2023-06-14T00:43:32;100201.97;;;27.99;24.83
78625;BME280;67944;0.000;0.000;2023-06-14T00:46:00;100212.69;;;27.99;24.54
78625;BME280;67944;0.000;0.000;2023-06-14T00:48:25;100203.25;;;27.96;24.88
78625;BME280;67944;0.000;0.000;2023-06-14T00:50:51;100204.88;;;27.97;25.11
78625;BME280;67944;0.000;0.000;2023-06-14T00:53:19;100199.75;;;27.96;24.84
78625;BME280;67944;0.000;0.000;2023-06-14T00:55:46;100204.53;;;27.94;24.54
78625;BME280;67944;0.000;0.000;2023-06-14T00:58:13;100197.59;;;27.93;25.05
78625;BME280;67944;0.000;0.000;2023-06-14T01:00:39;100203.16;;;27.91;25.08
78625;BME280;67944;0.000;0.000;2023-06-14T01:03:04;100207.72;;;27.91;25.04
78625;BME280;67944;0.000;0.000;2023-06-14T01:05:31;100202.59;;;27.89;25.06
78625;BME280;67944;0.000;0.000;2023-06-14T01:08:27;100209.00;;;27.88;25.01
78625;BME280;67944;0.000;0.000;2023-06-14T01:11:02;100202.00;;;27.87;25.03
78625;BME280;67944;0.000;0.000;2023-06-14T01:13:39;100208.41;;;27.86;24.85
78625;BME280;67944;0.000;0.000;2023-06-14T01:16:07;100209.44;;;27.85;25.00
78625;BME280;67944;0.000;0.000;2023-06-14T01:18:33;100209.69;;;27.84;25.03
78625;BME280;67944;0.000;0.000;2023-06-14T01:21:00;100219.56;;;27.83;25.01
78625;BME280;67944;0.000;0.000;2023-06-14T01:23:31;100220.63;;;27.82;25.12
78625;BME280;67944;0.000;0.000;2023-06-14T01:26:00;100217.34;;;27.80;25.17
78625;BME280;67944;0.000;0.000;2023-06-14T01:28:28;100215.50;;;27.81;25.31
78625;BME280;67944;0.000;0.000;2023-06-14T01:31:00;100221.91;;;27.80;25.48
78625;BME280;67944;0.000;0.000;2023-06-14T01:33:31;100210.38;;;27.79;25.05
78625;BME280;67944;0.000;0.000;2023-06-14T01:35:58;100211.66;;;27.77;25.27
78625;BME280;67944;0.000;0.000;2023-06-14T01:38:26;100215.38;;;27.76;25.06
78625;BME280;67944;0.000;0.000;2023-06-14T01:40:54;100213.75;;;27.75;25.11
78625;BME280;67944;0.000;0.000;2023-06-14T01:43:23;100214.78;;;27.74;25.07
78625;BME280;67944;0.000;0.000;2023-06-14T01:45:52;100212.94;;;27.74;25.09
78625;BME280;67944;0.000;0.000;2023-06-14T01:48:19;100212.34;;;27.72;25.12
78625;BME280;67944;0.000;0.000;2023-06-14T01:50:45;100206.19;;;27.72;25.42
78625;BME280;67944;0.000;0.000;2023-06-14T01:53:10;100209.94;;;27.71;25.39
78625;BME280;67944;0.000;0.000;2023-06-14T01:55:37;100219.00;;;27.70;25.55
78625;BME280;67944;0.000;0.000;2023-06-14T01:58:04;100225.41;;;27.69;25.06
78625;BME280;67944;0.000;0.000;2023-06-14T02:00:30;100225.41;;;27.69;25.47
78625;BME280;67944;0.000;0.000;2023-06-14T02:02:55;100224.00;;;27.66;25.15
78625;BME280;67944;0.000;0.000;2023-06-14T02:05:21;100217.84;;;27.66;25.13
78625;BME280;67944;0.000;0.000;2023-06-14T02:07:46;100219.69;;;27.65;25.76
78625;BME280;67944;0.000;0.000;2023-06-14T02:10:12;100221.56;;;27.64;25.21
78625;BME280;67944;0.000;0.000;2023-06-14T02:12:37;100225.28;;;27.63;25.17
78625;BME280;67944;0.000;0.000;2023-06-14T02:15:03;100220.16;;;27.62;25.24
78625;BME280;67944;0.000;0.000;2023-06-14T02:17:29;100217.50;;;27.62;25.25
78625;BME280;67944;0.000;0.000;2023-06-14T02:19:54;100228.41;;;27.60;25.25
78625;BME280;67944;0.000;0.000;2023-06-14T02:22:22;100228.66;;;27.59;25.35
78625;BME280;67944;0.000;0.000;2023-06-14T02:24:48;100228.66;;;27.59;25.60
78625;BME280;67944;0.000;0.000;2023-06-14T02:27:13;100233.38;;;27.57;25.49
78625;BME280;67944;0.000;0.000;2023-06-14T02:29:39;100229.09;;;27.56;25.14
78625;BME280;67944;0.000;0.000;2023-06-14T02:32:05;100223.72;;;27.56;25.25
78625;BME280;67944;0.000;0.000;2023-06-14T02:34:33;100221.28;;;27.54;25.60
78625;BME280;67944;0.000;0.000;2023-06-14T02:36:59;100225.81;;;27.54;25.54
78625;BME280;67944;0.000;0.000;2023-06-14T02:39:24;100230.59;;;27.52;25.74
78625;BME280;67944;0.000;0.000;2023-06-14T02:41:50;100237.78;;;27.51;25.38
78625;BME280;67944;0.000;0.000;2023-06-14T02:44:18;100236.16;;;27.50;25.39
78625;BME280;67944;0.000;0.000;2023-06-14T02:46:44;100230.81;;;27.50;25.62
78625;BME280;67944;0.000;0.000;2023-06-14T02:49:13;100235.03;;;27.46;25.72
78625;BME280;67944;0.000;0.000;2023-06-14T02:51:39;100235.84;;;27.47;25.82
78625;BME280;67944;0.000;0.000;2023-06-14T02:54:05;100232.34;;;27.46;26.00
78625;BME280;67944;0.000;0.000;2023-06-14T02:56:30;100228.03;;;27.45;25.66
78625;BME280;67944;0.000;0.000;2023-06-14T02:58:56;100237.94;;;27.45;25.66
78625;BME280;67944;0.000;0.000;2023-06-14T03:01:22;100237.09;;;27.44;25.71
78625;BME280;67944;0.000;0.000;2023-06-14T03:03:48;100240.00;;;27.43;25.91
78625;BME280;67944;0.000;0.000;2023-06-14T03:06:13;100244.53;;;27.42;25.70
78625;BME280;67944;0.000;0.000;2023-06-14T03:08:41;100247.22;;;27.42;25.51
78625;BME280;67944;0.000;0.000;2023-06-14T03:11:07;100244.78;;;27.41;25.49
78625;BME280;67944;0.000;0.000;2023-06-14T03:13:34;100247.69;;;27.39;26.04
78625;BME280;67944;0.000;0.000;2023-06-14T03:16:00;100249.41;;;27.34;25.61
78625;BME280;67944;0.000;0.000;2023-06-14T03:18:31;100240.56;;;27.21;25.59
78625;BME280;67944;0.000;0.000;2023-06-14T03:21:01;100240.50;;;27.10;25.07
78625;BME280;67944;0.000;0.000;2023-06-14T03:23:26;100255.13;;;26.95;25.23
78625;BME280;67944;0.000;0.000;2023-06-14T03:25:52;100256.56;;;26.80;25.08
78625;BME280;67944;0.000;0.000;2023-06-14T03:28:18;100244.41;;;26.66;25.23
78625;BME280;67944;0.000;0.000;2023-06-14T03:30:43;100253.41;;;26.53;25.36
78625;BME280;67944;0.000;0.000;2023-06-14T03:33:08;100261.59;;;26.40;25.33
78625;BME280;67944;0.000;0.000;2023-06-14T03:35:34;100264.34;;;26.26;25.64
78625;BME280;67944;0.000;0.000;2023-06-14T03:38:00;100267.78;;;26.15;25.26
78625;BME280;67944;0.000;0.000;2023-06-14T03:40:25;100271.97;;;26.05;25.06
78625;BME280;67944;0.000;0.000;2023-06-14T03:42:54;100278.06;;;25.93;25.48
78625;BME280;67944;0.000;0.000;2023-06-14T03:45:19;100275.88;;;25.84;25.61
78625;BME280;67944;0.000;0.000;2023-06-14T03:47:44;100275.56;;;25.74;25.63
78625;BME280;67944;0.000;0.000;2023-06-14T03:50:10;100287.31;;;25.66;25.26
78625;BME280;67944;0.000;0.000;2023-06-14T03:52:36;100277.91;;;25.57;26.24
78625;BME280;67944;0.000;0.000;2023-06-14T03:55:02;100280.06;;;25.48;26.18
78625;BME280;67944;0.000;0.000;2023-06-14T03:57:29;100281.13;;;25.41;25.83
78625;BME280;67944;0.000;0.000;2023-06-14T03:59:55;100284.28;;;25.31;26.35
78625;BME280;67944;0.000;0.000;2023-06-14T04:02:20;100284.53;;;25.23;25.89
78625;BME280;67944;0.000;0.000;2023-06-14T04:04:46;100285.81;;;25.14;25.66
78625;BME280;67944;0.000;0.000;2023-06-14T04:07:12;100293.06;;;25.07;26.28
78625;BME280;67944;0.000;0.000;2023-06-14T04:09:39;100296.34;;;25.02;26.20
78625;BME280;67944;0.000;0.000;2023-06-14T04:12:05;100291.88;;;24.96;26.99
78625;BME280;67944;0.000;0.000;2023-06-14T04:14:31;100295.56;;;24.95;26.09
78625;BME280;67944;0.000;0.000;2023-06-14T04:16:58;100298.00;;;24.97;26.98
78625;BME280;67944;0.000;0.000;2023-06-14T04:19:23;100303.53;;;25.02;26.79
78625;BME280;67944;0.000;0.000;2023-06-14T04:21:49;100296.97;;;25.04;26.40
78625;BME280;67944;0.000;0.000;2023-06-14T04:24:14;100307.41;;;25.06;27.28
78625;BME280;67944;0.000;0.000;2023-06-14T04:26:41;100304.94;;;25.04;27.21
78625;BME280;67944;0.000;0.000;2023-06-14T04:29:06;100314.78;;;25.04;26.79
78625;BME280;67944;0.000;0.000;2023-06-14T04:31:32;100315.03;;;24.96;26.85
78625;BME280;67944;0.000;0.000;2023-06-14T04:34:03;100323.66;;;24.84;27.30
78625;BME280;67944;0.000;0.000;2023-06-14T04:36:32;100318.22;;;24.66;27.32
78625;BME280;67944;0.000;0.000;2023-06-14T04:39:01;100330.94;;;24.51;27.45
78625;BME280;67944;0.000;0.000;2023-06-14T04:41:28;100319.94;;;24.34;28.12
78625;BME280;67944;0.000;0.000;2023-06-14T04:43:57;100321.38;;;24.17;27.66
78625;BME280;67944;0.000;0.000;2023-06-14T04:46:24;100323.81;;;24.05;28.18
78625;BME280;67944;0.000;0.000;2023-06-14T04:48:49;100325.91;;;23.90;27.89
78625;BME280;67944;0.000;0.000;2023-06-14T04:51:15;100331.63;;;23.74;28.00
78625;BME280;67944;0.000;0.000;2023-06-14T04:53:41;100331.63;;;23.74;28.83
78625;BME280;67944;0.000;0.000;2023-06-14T04:56:07;100338.97;;;23.85;28.83
78625;BME280;67944;0.000;0.000;2023-06-14T04:58:32;100346.38;;;23.96;29.04
78625;BME280;67944;0.000;0.000;2023-06-14T05:00:58;100342.88;;;24.09;28.78
78625;BME280;67944;0.000;0.000;2023-06-14T05:03:28;100354.75;;;24.19;28.58
78625;BME280;67944;0.000;0.000;2023-06-14T05:05:55;100349.81;;;24.30;29.21
78625;BME280;67944;0.000;0.000;2023-06-14T05:08:21;100355.56;;;24.40;29.02
78625;BME280;67944;0.000;0.000;2023-06-14T05:10:51;100351.84;;;24.47;29.42
78625;BME280;67944;0.000;0.000;2023-06-14T05:13:16;100357.16;;;24.54;28.62
78625;BME280;67944;0.000;0.000;2023-06-14T05:15:42;100350.19;;;24.59;29.30
78625;BME280;67944;0.000;0.000;2023-06-14T05:18:08;100352.03;;;24.66;29.08
78625;BME280;67944;0.000;0.000;2023-06-14T05:20:35;100355.47;;;24.73;28.99
78625;BME280;67944;0.000;0.000;2023-06-14T05:23:02;100350.13;;;24.79;28.68
78625;BME280;67944;0.000;0.000;2023-06-14T05:25:28;100357.28;;;24.85;29.22
78625;BME280;67944;0.000;0.000;2023-06-14T05:27:53;100359.06;;;24.91;28.67
78625;BME280;67944;0.000;0.000;2023-06-14T05:30:19;100359.09;;;24.98;28.95
78625;BME280;67944;0.000;0.000;2023-06-14T05:32:44;100356.59;;;25.03;28.70
78625;BME280;67944;0.000;0.000;2023-06-14T05:35:10;100363.16;;;25.07;29.28
78625;BME280;67944;0.000;0.000;2023-06-14T05:37:36;100363.97;;;25.08;28.43
78625;BME280;67944;0.000;0.000;2023-06-14T05:40:02;100370.94;;;25.09;28.52
78625;BME280;67944;0.000;0.000;2023-06-14T05:42:30;100368.88;;;25.11;28.96
78625;BME280;67944;0.000;0.000;2023-06-14T05:44:56;100370.50;;;25.12;28.40
78625;BME280;67944;0.000;0.000;2023-06-14T05:47:21;100365.97;;;25.12;28.96
78625;BME280;67944;0.000;0.000;2023-06-14T05:49:47;100368.00;;;25.17;28.40
78625;BME280;67944;0.000;0.000;2023-06-14T05:52:12;100366.56;;;25.21;28.30
78625;BME280;67944;0.000;0.000;2023-06-14T05:54:38;100376.59;;;25.25;28.75
78625;BME280;67944;0.000;0.000;2023-06-14T05:57:04;100374.94;;;25.31;29.03
78625;BME280;67944;0.000;0.000;2023-06-14T05:59:31;100375.53;;;25.33;28.31
78625;BME280;67944;0.000;0.000;2023-06-14T06:01:57;100376.94;;;25.36;28.22
78625;BME280;67944;0.000;0.000;2023-06-14T06:04:23;100388.00;;;25.39;28.20
78625;BME280;67944;0.000;0.000;2023-06-14T06:06:49;100379.56;;;25.42;28.78
78625;BME280;67944;0.000;0.000;2023-06-14T06:09:14;100385.50;;;25.44;28.51
78625;BME280;67944;0.000;0.000;2023-06-14T06:11:40;100387.53;;;25.49;28.84
78625;BME280;67944;0.000;0.000;2023-06-14T06:14:06;100388.75;;;25.53;27.87
78625;BME280;67944;0.000;0.000;2023-06-14T06:16:31;100392.00;;;25.55;28.32
78625;BME280;67944;0.000;0.000;2023-06-14T06:18:57;100389.72;;;25.58;28.30
78625;BME280;67944;0.000;0.000;2023-06-14T06:21:22;100390.97;;;25.63;27.98
78625;BME280;67944;0.000;0.000;2023-06-14T06:23:48;100394.84;;;25.67;28.58
78625;BME280;67944;0.000;0.000;2023-06-14T06:26:13;100403.44;;;25.69;28.58
78625;BME280;67944;0.000;0.000;2023-06-14T06:28:39;100398.13;;;25.69;27.64
78625;BME280;67944;0.000;0.000;2023-06-14T06:31:04;100405.91;;;25.70;28.39
78625;BME280;67944;0.000;0.000;2023-06-14T06:33:30;100403.84;;;25.72;28.02
78625;BME280;67944;0.000;0.000;2023-06-14T06:35:56;100405.69;;;25.72;28.52
78625;BME280;67944;0.000;0.000;2023-06-14T06:38:21;100403.84;;;25.72;28.46
78625;BME280;67944;0.000;0.000;2023-06-14T06:40:46;100420.44;;;25.74;28.43
78625;BME280;67944;0.000;0.000;2023-06-14T06:43:12;100409.56;;;25.76;27.63
78625;BME280;67944;0.000;0.000;2023-06-14T06:45:42;100410.75;;;25.80;27.86
78625;BME280;67944;0.000;0.000;2023-06-14T06:48:07;100414.84;;;25.82;27.92
78625;BME280;67944;0.000;0.000;2023-06-14T06:50:35;100416.25;;;25.85;28.13
78625;BME280;67944;0.000;0.000;2023-06-14T06:53:01;100419.13;;;25.83;27.91
78625;BME280;67944;0.000;0.000;2023-06-14T06:55:27;100417.13;;;25.79;28.17
78625;BME280;67944;0.000;0.000;2023-06-14T06:57:52;100424.28;;;25.78;28.10
78625;BME280;67944;0.000;0.000;2023-06-14T07:00:19;100432.50;;;25.77;28.61
78625;BME280;67944;0.000;0.000;2023-06-14T07:02:45;100432.50;;;25.77;27.63
78625;BME280;67944;0.000;0.000;2023-06-14T07:05:11;100444.59;;;25.79;28.16
78625;BME280;67944;0.000;0.000;2023-06-14T07:07:36;100436.59;;;25.79;27.56
78625;BME280;67944;0.000;0.000;2023-06-14T07:10:02;100440.09;;;25.80;27.95
78625;BME280;67944;0.000;0.000;2023-06-14T07:12:30;100442.53;;;25.81;28.59
78625;BME280;67944;0.000;0.000;2023-06-14T07:14:57;100448.91;;;25.80;27.81
78625;BME280;67944;0.000;0.000;2023-06-14T07:17:22;100440.09;;;25.80;28.17
78625;BME280;67944;0.000;0.000;2023-06-14T07:19:48;100446.84;;;25.82;27.85
78625;BME280;67944;0.000;0.000;2023-06-14T07:22:13;100440.28;;;25.85;28.16
78625;BME280;67944;0.000;0.000;2023-06-14T07:24:39;100438.81;;;25.89;27.71
78625;BME280;67944;0.000;0.000;2023-06-14T07:27:05;100440.22;;;25.91;28.58
78625;BME280;67944;0.000;0.000;2023-06-14T07:29:31;100445.97;;;25.95;27.79
78625;BME280;67944;0.000;0.000;2023-06-14T07:31:56;100450.06;;;25.98;28.19
78625;BME280;67944;0.000;0.000;2023-06-14T07:34:22;100447.13;;;25.99;28.15
78625;BME280;67944;0.000;0.000;2023-06-14T07:36:47;100455.53;;;26.03;27.87
78625;BME280;67944;0.000;0.000;2023-06-14T07:39:13;100453.25;;;26.06;28.30
78625;BME280;67944;0.000;0.000;2023-06-14T07:41:38;100454.91;;;26.07;27.77
78625;BME280;67944;0.000;0.000;2023-06-14T07:44:04;100462.69;;;26.09;28.10
78625;BME280;67944;0.000;0.000;2023-06-14T07:46:29;100463.94;;;26.06;28.28
78625;BME280;67944;0.000;0.000;2023-06-14T07:48:55;100456.97;;;26.05;28.51
78625;BME280;67944;0.000;0.000;2023-06-14T07:51:21;100459.19;;;26.08;28.47
78625;BME280;67944;0.000;0.000;2023-06-14T07:53:48;100461.44;;;26.11;27.76
78625;BME280;67944;0.000;0.000;2023-06-14T07:56:14;100459.59;;;26.12;28.44
78625;BME280;67944;0.000;0.000;2023-06-14T07:58:39;100465.75;;;26.12;28.07
78625;BME280;67944;0.000;0.000;2023-06-14T08:01:05;100463.06;;;26.12;28.53
78625;BME280;67944;0.000;0.000;2023-06-14T08:03:33;100465.75;;;26.12;27.69
78625;BME280;67944;0.000;0.000;2023-06-14T08:05:58;100460.41;;;26.12;28.04
78625;BME280;67944;0.000;0.000;2023-06-14T08:08:24;100459.00;;;26.10;28.67
78625;BME280;67944;0.000;0.000;2023-06-14T08:10:50;100465.16;;;26.10;28.04
78625;BME280;67944;0.000;0.000;2023-06-14T08:13:15;100464.31;;;26.10;28.43
78625;BME280;67944;0.000;0.000;2023-06-14T08:15:41;100459.38;;;26.13;28.69
78625;BME280;67944;0.000;0.000;2023-06-14T08:18:06;100452.19;;;26.14;28.45
78625;BME280;67944;0.000;0.000;2023-06-14T08:20:32;100461.00;;;26.14;28.72
78625;BME280;67944;0.000;0.000;2023-06-14T08:22:58;100460.59;;;26.17;28.20
78625;BME280;67944;0.000;0.000;2023-06-14T08:25:23;100459.31;;;26.20;28.76
78625;BME280;67944;0.000;0.000;2023-06-14T08:27:49;100465.25;;;26.22;28.57
78625;BME280;67944;0.000;0.000;2023-06-14T08:30:15;100460.06;;;26.27;28.84
78625;BME280;67944;0.000;0.000;2023-06-14T08:32:42;100464.38;;;26.35;28.35
78625;BME280;67944;0.000;0.000;2023-06-14T08:35:08;100461.06;;;26.39;28.31
78625;BME280;67944;0.000;0.000;2023-06-14T08:37:38;100468.38;;;26.44;28.64
78625;BME280;67944;0.000;0.000;2023-06-14T08:40:12;100461.34;;;26.49;28.22
78625;BME280;67944;0.000;0.000;2023-06-14T08:42:42;100465.44;;;26.52;27.84
78625;BME280;67944;0.000;0.000;2023-06-14T08:45:08;100458.84;;;26.54;27.65
78625;BME280;67944;0.000;0.000;2023-06-14T08:47:34;100458.63;;;26.56;28.00
78625;BME280;67944;0.000;0.000;2023-06-14T08:50:02;100459.03;;;26.59;27.74
78625;BME280;67944;0.000;0.000;2023-06-14T08:52:33;100461.47;;;26.61;27.68
78625;BME280;67944;0.000;0.000;2023-06-14T08:55:06;100459.97;;;26.65;27.71
78625;BME280;67944;0.000;0.000;2023-06-14T08:57:36;100461.38;;;26.68;27.45
78625;BME280;67944;0.000;0.000;2023-06-14T09:00:03;100465.47;;;26.70;27.61
78625;BME280;67944;0.000;0.000;2023-06-14T09:02:37;100464.22;;;26.73;27.13
78625;BME280;67944;0.000;0.000;2023-06-14T09:05:03;100470.16;;;26.75;27.09
78625;BME280;67944;0.000;0.000;2023-06-14T09:07:28;100471.81;;;26.76;27.03
78625;BME280;67944;0.000;0.000;2023-06-14T09:10:15;100464.97;;;26.80;26.90
78625;BME280;67944;0.000;0.000;2023-06-14T09:12:41;100462.91;;;26.82;26.76
78625;BME280;67944;0.000;0.000;2023-06-14T09:15:06;100465.13;;;26.85;27.26
78625;BME280;67944;0.000;0.000;2023-06-14T09:17:35;100471.28;;;26.85;26.62
78625;BME280;67944;0.000;0.000;2023-06-14T09:20:02;100463.84;;;26.87;26.56
78625;BME280;67944;0.000;0.000;2023-06-14T09:22:32;100478.63;;;26.90;26.75
78625;BME280;67944;0.000;0.000;2023-06-14T09:24:59;100472.03;;;26.92;26.76
78625;BME280;67944;0.000;0.000;2023-06-14T09:27:31;100479.00;;;26.93;26.75
78625;BME280;67944;0.000;0.000;2023-06-14T09:29:57;100477.78;;;26.96;26.36
78625;BME280;67944;0.000;0.000;2023-06-14T09:32:23;100482.91;;;26.98;26.83
78625;BME280;67944;0.000;0.000;2023-06-14T09:34:48;100479.59;;;27.02;26.18
78625;BME280;67944;0.000;0.000;2023-06-14T09:37:30;100485.31;;;27.06;26.35
78625;BME280;67944;0.000;0.000;2023-06-14T09:39:56;100484.25;;;27.07;26.25
78625;BME280;67944;0.000;0.000;2023-06-14T09:42:21;100488.53;;;27.08;25.83
78625;BME280;67944;0.000;0.000;2023-06-14T09:44:52;100482.16;;;27.09;25.68
78625;BME280;67944;0.000;0.000;2023-06-14T09:47:18;100487.50;;;27.09;25.85
78625;BME280;67944;0.000;0.000;2023-06-14T09:49:44;100485.88;;;27.08;25.85
78625;BME280;67944;0.000;0.000;2023-06-14T09:52:18;100490.41;;;27.07;25.36
78625;BME280;67944;0.000;0.000;2023-06-14T09:54:46;100486.47;;;27.10;25.76
78625;BME280;67944;0.000;0.000;2023-06-14T09:57:13;100482.31;;;27.14;25.38
78625;BME280;67944;0.000;0.000;2023-06-14T09:59:45;100486.78;;;27.20;25.71
78625;BME280;67944;0.000;0.000;2023-06-14T10:02:34;100487.53;;;27.27;25.43
78625;BME280;67944;0.000;0.000;2023-06-14T10:05:06;100485.78;;;27.33;25.73
78625;BME280;67944;0.000;0.000;2023-06-14T10:07:48;100478.97;;;27.37;25.22
78625;BME280;67944;0.000;0.000;2023-06-14T10:10:17;100483.28;;;27.38;25.72
78625;BME280;67944;0.000;0.000;2023-06-14T10:12:44;100485.72;;;27.39;25.61
78625;BME280;67944;0.000;0.000;2023-06-14T10:15:20;100487.34;;;27.40;25.59
78625;BME280;67944;0.000;0.000;2023-06-14T10:17:55;100486.91;;;27.43;25.37
78625;BME280;67944;0.000;0.000;2023-06-14T10:20:38;100485.44;;;27.47;25.26
78625;BME280;67944;0.000;0.000;2023-06-14T10:23:18;100475.31;;;27.49;25.31
78625;BME280;67944;0.000;0.000;2023-06-14T10:25:44;100479.38;;;27.52;25.30
78625;BME280;67944;0.000;0.000;2023-06-14T10:28:20;100484.28;;;27.55;25.14
78625;BME280;67944;0.000;0.000;2023-06-14T10:31:08;100483.47;;;27.54;25.14
78625;BME280;67944;0.000;0.000;2023-06-14T10:33:36;100491.72;;;27.53;24.76
78625;BME280;67944;0.000;0.000;2023-06-14T10:36:27;100485.53;;;27.52;25.21
78625;BME280;67944;0.000;0.000;2023-06-14T10:39:16;100487.19;;;27.53;25.54
78625;BME280;67944;0.000;0.000;2023-06-14T10:41:52;100474.78;;;27.59;25.17
78625;BME280;67944;0.000;0.000;2023-06-14T10:46:54;100483.88;;;27.58;25.01
78625;BME280;67944;0.000;0.000;2023-06-14T10:49:20;100479.91;;;27.60;25.23
78625;BME280;67944;0.000;0.000;2023-06-14T10:52:02;100480.06;;;27.66;25.43
78625;BME280;67944;0.000;0.000;2023-06-14T10:54:28;100479.41;;;27.70;25.04
78625;BME280;67944;0.000;0.000;2023-06-14T10:56:53;100476.25;;;27.73;25.30
78625;BME280;67944;0.000;0.000;2023-06-14T10:59:20;100484.63;;;27.77;25.03
78625;BME280;67944;0.000;0.000;2023-06-14T11:05:15;100483.00;;;27.76;24.61
78625;BME280;67944;0.000;0.000;2023-06-14T11:10:38;100478.59;;;27.81;24.52
78625;BME280;67944;0.000;0.000;2023-06-14T11:13:04;100478.38;;;27.83;24.67
78625;BME280;67944;0.000;0.000;2023-06-14T11:15:32;100480.00;;;27.84;24.61
78625;BME280;67944;0.000;0.000;2023-06-14T11:18:00;100480.59;;;27.86;24.53
78625;BME280;67944;0.000;0.000;2023-06-14T11:20:29;100489.00;;;27.89;24.71
78625;BME280;67944;0.000;0.000;2023-06-14T11:22:55;100488.78;;;27.91;24.57
78625;BME280;67944;0.000;0.000;2023-06-14T11:25:20;100485.88;;;27.92;24.73
78625;BME280;67944;0.000;0.000;2023-06-14T11:27:46;100482.72;;;27.95;24.70
78625;BME280;67944;0.000;0.000;2023-06-14T11:30:14;100483.06;;;27.99;24.62
78625;BME280;67944;0.000;0.000;2023-06-14T11:32:40;100479.94;;;28.02;24.91
78625;BME280;67944;0.000;0.000;2023-06-14T11:35:06;100475.19;;;28.04;24.52
78625;BME280;67944;0.000;0.000;2023-06-14T11:37:32;100480.31;;;28.06;24.67
78625;BME280;67944;0.000;0.000;2023-06-14T11:40:01;100478.22;;;28.08;24.65
78625;BME280;67944;0.000;0.000;2023-06-14T11:42:29;100480.66;;;28.09;24.68
78625;BME280;67944;0.000;0.000;2023-06-14T11:44:55;100475.31;;;28.09;24.48
78625;BME280;67944;0.000;0.000;2023-06-14T11:47:21;100476.94;;;28.10;24.47
78625;BME280;67944;0.000;0.000;2023-06-14T11:49:47;100481.03;;;28.13;24.50
78625;BME280;67944;0.000;0.000;2023-06-14T11:52:13;100484.53;;;28.13;24.47
78625;BME280;67944;0.000;0.000;2023-06-14T11:54:39;100485.09;;;28.15;24.08
78625;BME280;67944;0.000;0.000;2023-06-14T11:57:06;100481.94;;;28.18;24.44
78625;BME280;67944;0.000;0.000;2023-06-14T11:59:38;100477.81;;;28.22;24.56
78625;BME280;67944;0.000;0.000;2023-06-14T12:02:04;100478.16;;;28.26;24.31
78625;BME280;67944;0.000;0.000;2023-06-14T12:04:29;100467.44;;;28.26;24.21
78625;BME280;67944;0.000;0.000;2023-06-14T12:06:56;100470.94;;;28.26;24.14
78625;BME280;67944;0.000;0.000;2023-06-14T12:09:23;100470.72;;;28.28;24.55
78625;BME280;67944;0.000;0.000;2023-06-14T12:11:59;100463.84;;;28.32;24.40
78625;BME280;67944;0.000;0.000;2023-06-14T12:14:32;100478.66;;;28.35;24.15
78625;BME280;67944;0.000;0.000;2023-06-14T12:17:07;100486.47;;;28.36;24.38
78625;BME280;67944;0.000;0.000;2023-06-14T12:19:33;100467.94;;;28.35;24.33
78625;BME280;67944;0.000;0.000;2023-06-14T12:22:06;100473.06;;;28.36;24.06
78625;BME280;67944;0.000;0.000;2023-06-14T12:24:34;100481.88;;;28.37;24.04
78625;BME280;67944;0.000;0.000;2023-06-14T12:27:00;100478.44;;;28.36;23.93
78625;BME280;67944;0.000;0.000;2023-06-14T12:29:25;100473.84;;;28.37;23.97
78625;BME280;67944;0.000;0.000;2023-06-14T12:31:51;100480.84;;;28.38;23.56
78625;BME280;67944;0.000;0.000;2023-06-14T12:34:16;100463.13;;;28.37;23.94
78625;BME280;67944;0.000;0.000;2023-06-14T12:36:42;100462.09;;;28.38;23.97
78625;BME280;67944;0.000;0.000;2023-06-14T12:39:10;100462.69;;;28.40;23.87
78625;BME280;67944;0.000;0.000;2023-06-14T12:41:36;100461.63;;;28.41;23.76
78625;BME280;67944;0.000;0.000;2023-06-14T12:44:02;100475.84;;;28.41;23.81
78625;BME280;67944;0.000;0.000;2023-06-14T12:46:30;100464.91;;;28.43;23.73
78625;BME280;67944;0.000;0.000;2023-06-14T12:48:57;100464.66;;;28.44;23.72
78625;BME280;67944;0.000;0.000;2023-06-14T12:51:22;100465.25;;;28.46;23.78
78625;BME280;67944;0.000;0.000;2023-06-14T12:53:49;100463.97;;;28.49;23.75
78625;BME280;67944;0.000;0.000;2023-06-14T12:56:15;100456.53;;;28.51;23.75
78625;BME280;67944;0.000;0.000;2023-06-14T12:58:41;100473.19;;;28.53;23.67
78625;BME280;67944;0.000;0.000;2023-06-14T13:01:07;100474.59;;;28.55;23.95
78625;BME280;67944;0.000;0.000;2023-06-14T13:03:32;100466.06;;;28.58;23.53
78625;BME280;67944;0.000;0.000;2023-06-14T13:05:59;100469.09;;;28.62;23.46
78625;BME280;67944;0.000;0.000;2023-06-14T13:08:24;100470.50;;;28.64;23.51
78625;BME280;67944;0.000;0.000;2023-06-14T13:10:50;100464.09;;;28.65;23.37